Avery Island, LA

01:17 CDT le 25 octobre 2014 (GMT -0500)
Acadiana Regional | Change Station
CLOSE
Current Station
Aéroport
Location: New Iberia,
Altitude: 23 ft
Stations météo à proximité

Alt. 23 ft 30.04 °N, 91.88 °W | Updated 24 minutes ago

Ciel dégagé
Ciel dégagé
55 ° F
Paraît 55 ° F
N
4
Vent Variable Vent de Nord

Aujourd'hui
Haut(e) -- | Bas -- ° F
--% Risque de précip.
Hier
Haut(e) -- | Bas -- ° F
Precip. -- pouce
7:16 AM 6:26 PM
Nouvelle lune, 2% visible
Pression 30.13 pouce
Visibilité 10.0 Miles terrestres
Nuages Ciel dégagé
Point de rosée 50 ° F
Humidité 83%
Précipitations 0.00 pouce
Profondeur de la couche neigeuse Non disponible.
UV 0 sur 12
Pollen 2.60 sur 12
Qualité de l'air Non disponible.
Flu Activity Sporadic
METAR KARA 250553Z AUTO 35003KT 10SM CLR 13/10 A3013 RMK AO2 SLP202 T01280100 10189 20122 402560100 50003 $

More Conditions Fewer Conditions

Pression 30.13 pouce
Visibilité 10.0 Miles terrestres
Nuages Ciel dégagé
Point de rosée 50 ° F
Humidité 83%
Précipitations 0.00 pouce
Profondeur de la couche neigeuse Non disponible.
UV 0 sur 12
Pollen 2.60 sur 12
Qualité de l'air Non disponible.
Flu Activity Sporadic
METAR KARA 250553Z AUTO 35003KT 10SM CLR 13/10 A3013 RMK AO2 SLP202 T01280100 10189 20122 402560100 50003 $

More Conditions Fewer Conditions

10-Day Weather Forecast

Almanac

Astronomie

Oct. 25, 2014 Lever Coucher
Temps réel 07:16 CDT 18:26 CDT
Crépuscule civil 06:51 CDT 18:50 CDT
Crépuscule nautique 06:23 CDT 19:18 CDT
Crépuscule astronomique 05:55 CDT 19:46 CDT
Lune 08:50 CDT 19:55 CDT
Durée de lumière visible 11h 59m
Longueur du jour
11h 10m
Tomorrow will be 1m 39s shorter.
Nouvelle lune, 2% of the Moon is Illuminated
Aujourd'hui
Nouvelle lune
Oct 30
Premier quartier
Nov 6
Pleine lune
Nov 14
Dernier quartier
Nov 22
Nouveau

Extrêmes aujourd'hui

State Highs State Lows

Community

WunderPhotos

Upload Photos

1,764,785 Photos téléchargées !

Nearby

Épaisseur de neige

Station Depth Altitude
Pas de nouvelles chutes de neige

Activité sismique

Ville Distance Mag. Time & Date
No recent earthquake activity has been reported nearby.
Minimum magnitude displayed is 2.5.

Températures des eaux côtières

Lieu Température
Fresh Water Canal Locks, LA 72.0 ° F
Amerada Pass, LA 69.1 ° F

Stations météo à proximité